Jackson, MS (39201)

11:11 PM CDT on September 28, 2016 (GMT -0500)
Belhaven | | Change Station

Elev 318 ft 32.32 °N, 90.16 °W | Updated 12 seconds ago

Clear
Clear
71.8 °F
Feels Like 75 °F
N
0.0
Wind Variable Wind from WSW
Gusts 0.0 mph

Today
High -- | Low -- °F
--% Chance of Precip.
Yesterday
High -- | Low -- °F
Precip. -- in
Pressure 29.99 in
Visibility 10.0 miles
Clouds Clear
Heat Index 75 °F
Dew Point 61 °F
Humidity 68%
Rainfall 0.00 in
Snow Depth Not available.
6:53 AM 6:48 PM
Waning Crescent, 3% visible
METAR KHKS 290353Z AUTO 27006KT 10SM CLR 22/16 A3001 RMK AO2 SLP153 T02170156
Pressure 29.99 in
Visibility 10.0 miles
Clouds Clear
Heat Index 75 °F
Dew Point 61 °F
Humidity 68%
Rainfall 0.00 in
Snow Depth Not available.
6:53 AM 6:48 PM
Waning Crescent, 3% visible
METAR KHKS 290353Z AUTO 27006KT 10SM CLR 22/16 A3001 RMK AO2 SLP153 T02170156

10-Day Weather Forecast

Almanac

Astronomy

Sep. 28, 2016 Rise Set
Actual Time
Civil Twilight
Nautical Twilight
Astronomical Twilight
Moon
Length of Visible Light
Length of Day
Tomorrow will be .
, % of the Moon is Illuminated

Today's Extremes

State Highs State Lows

Community

WunderPhotos

Upload Photos

1,942,429 photos uploaded!

WunderBlog® & News

Nearby

Air Quality

  Air Quality AQ Index Pollutant
Not available.

Snow Depth

Station Depth Elevation

Earthquake Activity

City Distance Mag. Time & Date
Minimum magnitude displayed is 2.5.

Coastal Water Temperatures

Place Temperature

Stations

Nearby Weather Stations

Station Location Temp. Windchill Dew Point Humidity Wind Precip. Elev Updated Type
                   

Watches & Warnings

There are currently no watches in effect.